createdAt,value
2023-04-27T00:00:59.768Z,9.18
2023-04-27T00:03:33.149Z,9.80
2023-04-27T00:06:02.300Z,9.25
2023-04-27T00:08:31.030Z,9.15
2023-04-27T00:10:59.298Z,9.02
2023-04-27T00:13:30.774Z,7.30
2023-04-27T00:16:04.002Z,8.18
2023-04-27T00:18:32.288Z,7.53
2023-04-27T00:21:01.493Z,7.68
2023-04-27T00:23:30.461Z,6.95
2023-04-27T00:25:59.259Z,7.55
2023-04-27T00:28:31.663Z,7.80
2023-04-27T00:31:04.868Z,7.13
2023-04-27T00:33:33.913Z,7.88
2023-04-27T00:36:03.802Z,8.95
2023-04-27T00:38:32.852Z,7.25
2023-04-27T00:41:05.066Z,7.40
2023-04-27T00:43:42.619Z,9.48
2023-04-27T00:46:13.339Z,8.80
2023-04-27T00:48:42.650Z,10.07
2023-04-27T00:51:11.648Z,7.20
2023-04-27T00:53:43.583Z,9.00
2023-04-27T00:56:12.612Z,8.50
2023-04-27T00:58:44.730Z,8.30
2023-04-27T01:01:16.681Z,8.50
2023-04-27T01:03:45.374Z,9.27
2023-04-27T01:06:14.084Z,8.48
2023-04-27T01:08:44.705Z,10.35
2023-04-27T01:11:13.557Z,8.63
2023-04-27T01:13:41.948Z,10.38
2023-04-27T01:16:10.404Z,10.27
2023-04-27T01:18:40.843Z,9.55
2023-04-27T01:21:09.378Z,9.93
2023-04-27T01:23:39.767Z,10.68
2023-04-27T01:26:08.522Z,8.85
2023-04-27T01:28:37.531Z,11.95
2023-04-27T01:31:06.599Z,8.27
2023-04-27T01:33:35.485Z,10.98
2023-04-27T01:36:04.260Z,8.82
2023-04-27T01:38:34.136Z,10.57
2023-04-27T01:41:05.970Z,10.68
2023-04-27T01:43:47.366Z,11.20
2023-04-27T01:46:19.747Z,10.02
2023-04-27T01:48:50.915Z,8.77
2023-04-27T01:51:45.050Z,11.05
2023-04-27T01:54:14.790Z,10.05
2023-04-27T01:56:52.366Z,8.70
2023-04-27T01:59:22.819Z,7.18
2023-04-27T02:01:54.077Z,8.18
2023-04-27T02:04:23.640Z,9.85
2023-04-27T02:06:52.653Z,7.78
2023-04-27T02:09:21.951Z,9.48
2023-04-27T02:11:52.966Z,7.93
2023-04-27T02:14:22.992Z,7.25
2023-04-27T02:16:55.188Z,8.52
2023-04-27T02:19:58.870Z,8.48
2023-04-27T02:22:25.489Z,10.10
2023-04-27T02:25:22.165Z,9.52
2023-04-27T02:28:11.822Z,8.70
2023-04-27T02:31:07.143Z,8.45
2023-04-27T02:33:48.846Z,9.88
2023-04-27T02:36:24.567Z,7.07
2023-04-27T02:41:50.899Z,7.60
2023-04-27T02:44:21.648Z,8.27
2023-04-27T02:46:50.384Z,7.70
2023-04-27T02:49:19.022Z,7.75
2023-04-27T02:51:47.418Z,6.85
2023-04-27T02:54:16.312Z,9.27
2023-04-27T02:56:44.901Z,11.88
2023-04-27T02:59:13.767Z,8.02
2023-04-27T03:01:57.820Z,9.68
2023-04-27T03:04:28.462Z,10.57
2023-04-27T03:07:02.725Z,8.80
2023-04-27T03:09:45.218Z,7.88
2023-04-27T03:12:15.792Z,6.55
2023-04-27T03:14:48.453Z,6.07
2023-04-27T03:17:25.570Z,8.75
2023-04-27T03:19:57.720Z,7.63
2023-04-27T03:22:32.882Z,7.18
2023-04-27T03:25:13.994Z,6.88
2023-04-27T03:27:43.768Z,8.13
2023-04-27T03:30:29.208Z,8.35
2023-04-27T03:33:02.319Z,9.13
2023-04-27T03:35:43.349Z,8.70
2023-04-27T03:38:15.722Z,6.80
2023-04-27T03:40:48.842Z,8.50
2023-04-27T03:43:26.329Z,9.85
2023-04-27T03:46:03.166Z,7.72
2023-04-27T03:48:39.098Z,8.52
2023-04-27T03:51:15.449Z,9.25
2023-04-27T03:53:52.770Z,10.43
2023-04-27T03:57:09.863Z,12.02
2023-04-27T04:04:33.805Z,8.13
2023-04-27T04:07:06.804Z,5.78
2023-04-27T04:09:38.416Z,7.90
2023-04-27T04:12:14.587Z,9.38
2023-04-27T04:15:01.677Z,7.55
2023-04-27T04:17:36.345Z,8.05
2023-04-27T04:20:17.452Z,11.23
2023-04-27T04:23:22.272Z,9.25
2023-04-27T04:26:05.907Z,6.85
2023-04-27T04:28:47.911Z,7.78
2023-04-27T04:31:27.318Z,7.82
2023-04-27T04:34:07.516Z,8.48
2023-04-27T04:36:57.850Z,8.38
2023-04-27T04:39:38.205Z,7.10
2023-04-27T04:42:19.767Z,8.68
2023-04-27T04:48:46.029Z,7.95
2023-04-27T04:51:23.864Z,11.98
2023-04-27T04:54:29.981Z,8.55
2023-04-27T04:57:04.949Z,9.13
2023-04-27T04:59:39.368Z,7.80
2023-04-27T05:02:10.906Z,6.72
2023-04-27T05:04:40.609Z,6.72
2023-04-27T05:07:24.757Z,9.85
2023-04-27T05:10:14.982Z,11.30
2023-04-27T05:13:15.161Z,6.63
2023-04-27T05:16:18.560Z,7.13
2023-04-27T05:19:14.287Z,8.25
2023-04-27T05:21:57.478Z,8.02
2023-04-27T05:24:31.891Z,8.55
2023-04-27T05:27:03.809Z,8.43
2023-04-27T05:30:05.345Z,9.32
2023-04-27T05:33:19.727Z,8.82
2023-04-27T05:36:11.419Z,8.10
2023-04-27T05:39:05.515Z,6.95
2023-04-27T05:41:53.192Z,8.23
2023-04-27T05:44:36.486Z,8.90
2023-04-27T05:47:17.548Z,7.38
2023-04-27T05:49:58.630Z,8.25
2023-04-27T05:56:10.038Z,9.52
2023-04-27T06:03:01.577Z,6.68
2023-04-27T06:12:39.466Z,6.57
2023-04-27T06:15:24.717Z,8.02
2023-04-27T06:18:10.796Z,7.30
2023-04-27T06:21:17.357Z,6.45
2023-04-27T06:24:25.860Z,7.30
2023-04-27T06:27:07.662Z,7.20
2023-04-27T06:30:02.419Z,6.95
2023-04-27T06:32:46.262Z,7.65
2023-04-27T06:35:40.082Z,8.57
2023-04-27T06:38:29.660Z,6.78
2023-04-27T06:41:03.944Z,5.10
2023-04-27T06:43:36.959Z,6.72
2023-04-27T06:49:29.645Z,8.35
2023-04-27T06:52:23.275Z,7.10
2023-04-27T06:55:20.170Z,8.55
2023-04-27T06:57:57.710Z,7.18
2023-04-27T07:00:30.010Z,6.65
2023-04-27T07:03:39.694Z,5.63
2023-04-27T07:06:33.582Z,5.35
2023-04-27T07:09:26.906Z,5.63
2023-04-27T07:12:38.666Z,8.38
2023-04-27T07:15:32.232Z,5.00
2023-04-27T07:18:34.051Z,5.30
2023-04-27T07:21:23.921Z,5.43
2023-04-27T07:24:09.863Z,6.72
2023-04-27T07:26:47.364Z,4.68
2023-04-27T07:29:34.646Z,5.72
2023-04-27T07:35:28.289Z,5.72
2023-04-27T07:38:12.963Z,5.30
2023-04-27T07:41:04.077Z,5.75
2023-04-27T07:43:37.897Z,7.00
2023-04-27T07:46:15.074Z,4.65
2023-04-27T07:48:59.282Z,7.95
2023-04-27T07:51:32.277Z,5.50
2023-04-27T07:54:27.132Z,4.85
2023-04-27T07:57:10.143Z,4.38
2023-04-27T07:59:57.803Z,6.88
2023-04-27T08:02:39.602Z,8.23
2023-04-27T08:05:19.726Z,5.75
2023-04-27T08:07:58.893Z,5.20
2023-04-27T08:10:49.234Z,5.30
2023-04-27T08:13:48.254Z,5.95
2023-04-27T08:19:52.190Z,6.47
2023-04-27T08:22:41.855Z,5.65
2023-04-27T08:25:35.211Z,6.95
2023-04-27T08:28:06.478Z,5.68
2023-04-27T08:30:53.918Z,6.03
2023-04-27T08:33:44.047Z,4.90
2023-04-27T08:36:28.038Z,5.82
2023-04-27T08:39:33.432Z,5.20
2023-04-27T08:50:00.780Z,4.32
2023-04-27T08:56:15.027Z,4.78
2023-04-27T08:58:49.837Z,4.70
2023-04-27T09:04:37.783Z,6.25
2023-04-27T09:13:38.723Z,6.28
2023-04-27T09:16:21.729Z,6.13
2023-04-27T09:22:31.937Z,6.82
2023-04-27T09:25:28.876Z,5.82
2023-04-27T09:28:30.449Z,5.82
2023-04-27T09:31:05.065Z,4.55
2023-04-27T09:38:43.661Z,6.57
2023-04-27T09:47:59.910Z,5.70
2023-04-27T09:58:10.613Z,5.90
2023-04-27T10:01:37.656Z,6.25
2023-04-27T10:05:21.413Z,5.40
2023-04-27T10:12:58.997Z,6.68
2023-04-27T10:25:37.588Z,5.57
2023-04-27T10:28:08.389Z,5.85
2023-04-27T10:30:39.672Z,5.95
2023-04-27T10:33:09.480Z,6.07
2023-04-27T10:35:39.531Z,6.35
2023-04-27T10:38:24.755Z,4.82
2023-04-27T10:44:53.880Z,8.52
2023-04-27T10:54:25.939Z,4.00
2023-04-27T10:57:49.861Z,5.40
2023-04-27T11:01:23.636Z,5.10
2023-04-27T11:08:39.126Z,6.38
2023-04-27T11:18:51.777Z,7.13
2023-04-27T11:21:57.123Z,6.45
2023-04-27T11:28:16.547Z,6.70
2023-04-27T11:31:13.541Z,6.30
2023-04-27T11:37:43.281Z,5.78
2023-04-27T11:44:18.107Z,4.43
2023-04-27T11:47:53.577Z,5.25
2023-04-27T11:54:05.822Z,5.43
2023-04-27T11:56:58.041Z,5.43
2023-04-27T11:59:43.692Z,6.28
2023-04-27T12:02:32.031Z,4.25
2023-04-27T12:11:50.221Z,6.25
2023-04-27T12:19:25.345Z,5.13
2023-04-27T12:35:49.745Z,6.25
2023-04-27T12:42:26.550Z,7.70
2023-04-27T12:52:44.371Z,4.93
2023-04-27T13:00:52.266Z,5.45
2023-04-27T13:02:33.437Z,4.65
2023-04-27T13:05:14.973Z,5.95
2023-04-27T13:11:17.972Z,5.03
2023-04-27T13:20:27.799Z,6.32
2023-04-27T13:23:22.203Z,5.05
2023-04-27T13:37:37.897Z,5.60
2023-04-27T13:40:20.140Z,7.10
2023-04-27T13:42:59.163Z,4.55
2023-04-27T13:45:51.399Z,6.07
2023-04-27T13:52:18.261Z,5.15
2023-04-27T14:05:32.255Z,5.40
2023-04-27T14:12:41.527Z,5.05
2023-04-27T14:48:49.683Z,5.05
2023-04-27T14:51:45.882Z,6.95
2023-04-27T15:01:26.632Z,5.35
2023-04-27T15:07:46.712Z,5.95
2023-04-27T15:14:05.272Z,5.78
2023-04-27T15:16:47.371Z,6.93
2023-04-27T15:19:52.592Z,7.18
2023-04-27T15:23:36.496Z,4.90
2023-04-27T15:30:39.486Z,5.32
2023-04-27T15:33:52.580Z,4.20
2023-04-27T15:43:31.857Z,5.53
2023-04-27T15:46:10.168Z,4.50
2023-04-27T15:49:20.812Z,5.82
2023-04-27T15:51:58.884Z,4.57
2023-04-27T15:55:10.116Z,4.03
2023-04-27T15:57:52.798Z,4.82
2023-04-27T16:00:46.563Z,6.95
2023-04-27T16:07:20.470Z,4.75
2023-04-27T16:12:57.399Z,5.68
2023-04-27T16:15:44.394Z,5.00
2023-04-27T16:18:51.736Z,5.38
2023-04-27T16:22:07.085Z,4.85
2023-04-27T16:25:07.844Z,6.00
2023-04-27T16:28:14.092Z,5.78
2023-04-27T16:31:27.944Z,4.82
2023-04-27T16:34:06.293Z,4.50
2023-04-27T16:36:39.698Z,5.30
2023-04-27T16:39:28.336Z,4.75
2023-04-27T16:42:19.256Z,5.40
2023-04-27T16:44:53.892Z,5.60
2023-04-27T16:47:51.035Z,6.22
2023-04-27T16:50:31.776Z,5.55
2023-04-27T16:53:16.738Z,5.57
2023-04-27T16:55:54.260Z,5.10
2023-04-27T16:58:41.685Z,5.27
2023-04-27T17:04:46.402Z,5.47
2023-04-27T17:07:25.790Z,6.20
2023-04-27T17:10:08.742Z,5.72
2023-04-27T17:13:04.056Z,5.00
2023-04-27T17:15:49.627Z,5.38
2023-04-27T17:18:28.316Z,5.75
2023-04-27T17:20:59.958Z,5.50
2023-04-27T17:26:30.018Z,7.45
2023-04-27T17:29:20.744Z,8.73
2023-04-27T17:32:13.560Z,7.57
2023-04-27T17:35:12.378Z,6.47
2023-04-27T17:38:03.276Z,6.70
2023-04-27T17:41:19.258Z,10.02
2023-04-27T17:43:56.833Z,7.95
2023-04-27T17:46:42.163Z,6.40
2023-04-27T17:55:06.607Z,7.00
2023-04-27T18:01:53.997Z,7.38
2023-04-27T18:09:26.237Z,8.38
2023-04-27T18:15:49.702Z,7.20
2023-04-27T18:20:43.240Z,6.57
2023-04-27T18:33:18.077Z,7.68
2023-04-27T18:44:17.687Z,8.98
2023-04-27T18:48:12.928Z,9.07
2023-04-27T18:54:44.172Z,6.90
2023-04-27T18:58:19.163Z,7.78
2023-04-27T19:01:16.886Z,9.18
2023-04-27T19:05:11.349Z,9.40
2023-04-27T19:48:09.382Z,10.02
2023-04-27T20:07:06.016Z,12.32
2023-04-27T20:16:06.852Z,12.48
2023-04-27T20:22:40.780Z,16.08
2023-04-27T20:54:49.511Z,14.93
2023-04-27T21:05:01.596Z,13.65
2023-04-27T21:12:02.991Z,15.65
2023-04-27T21:21:43.777Z,12.48
2023-04-27T21:24:38.441Z,11.98
2023-04-27T21:31:02.734Z,11.23
2023-04-27T21:33:48.496Z,13.80
2023-04-27T21:36:57.968Z,11.93
2023-04-27T21:43:03.439Z,12.88
2023-04-27T21:45:44.552Z,16.73
2023-04-27T21:51:40.117Z,14.73
2023-04-27T22:04:18.880Z,13.05
2023-04-27T22:07:44.895Z,18.77
2023-04-27T22:10:51.307Z,14.35
2023-04-27T22:20:52.082Z,14.90
2023-04-27T22:23:50.800Z,15.00
2023-04-27T22:30:47.139Z,14.43
2023-04-27T22:43:35.612Z,16.58
2023-04-27T23:02:24.291Z,15.63
2023-04-27T23:05:31.021Z,13.45
2023-04-27T23:15:13.864Z,9.52
2023-04-27T23:18:13.034Z,12.15
2023-04-27T23:21:10.376Z,16.35
2023-04-27T23:24:21.503Z,14.13
2023-04-27T23:27:12.812Z,15.68
2023-04-27T23:30:30.250Z,13.32
2023-04-27T23:36:48.032Z,13.43
2023-04-27T23:40:29.119Z,12.18
2023-04-27T23:46:50.377Z,15.32
2023-04-27T23:50:20.750Z,12.85
